createdAt,value
2018-04-23T00:00:26.387Z,1002.31
2018-04-23T00:01:26.371Z,1002.32
2018-04-23T00:02:26.360Z,1002.29
2018-04-23T00:03:26.350Z,1002.28
2018-04-23T00:04:26.334Z,1002.29
2018-04-23T00:05:26.323Z,1002.26
2018-04-23T00:06:26.313Z,1002.24
2018-04-23T00:07:26.308Z,1002.29
2018-04-23T00:08:26.288Z,1002.29
2018-04-23T00:09:26.280Z,1002.26
2018-04-23T00:10:26.267Z,1002.27
2018-04-23T00:11:26.254Z,1002.26
2018-04-23T00:12:26.241Z,1002.25
2018-04-23T00:13:26.230Z,1002.21
2018-04-23T00:14:26.224Z,1002.22
2018-04-23T00:15:26.205Z,1002.2
2018-04-23T00:16:26.195Z,1002.21
2018-04-23T00:17:26.181Z,1002.26
2018-04-23T00:18:26.174Z,1002.3
2018-04-23T00:19:26.168Z,1002.27
2018-04-23T00:20:26.150Z,1002.27
2018-04-23T00:21:26.137Z,1002.31
2018-04-23T00:22:26.122Z,1002.34
2018-04-23T00:23:26.115Z,1002.39
2018-04-23T00:24:26.099Z,1002.39
2018-04-23T00:25:26.090Z,1002.4
2018-04-23T00:26:26.075Z,1002.44
2018-04-23T00:27:26.069Z,1002.49
2018-04-23T00:28:26.056Z,1002.51
2018-04-23T00:29:26.039Z,1002.54
2018-04-23T00:30:26.027Z,1002.57
2018-04-23T00:31:26.018Z,1002.64
2018-04-23T00:32:26.005Z,1002.82
2018-04-23T00:33:25.992Z,1003.37
2018-04-23T00:34:25.983Z,1003.52
2018-04-23T00:35:25.969Z,1003.77
2018-04-23T00:36:25.957Z,1003.61
2018-04-23T00:37:25.948Z,1003.46
2018-04-23T00:38:25.934Z,1003.4
2018-04-23T00:39:25.922Z,1003.35
2018-04-23T00:40:25.911Z,1003.39
2018-04-23T00:41:25.899Z,1003.38
2018-04-23T00:42:26.095Z,1003.34
2018-04-23T00:43:25.875Z,1003.24
2018-04-23T00:44:25.868Z,1003.27
2018-04-23T00:45:25.851Z,1003.08
2018-04-23T00:46:25.849Z,1003.09
2018-04-23T00:47:25.831Z,1002.99
2018-04-23T00:48:25.814Z,1002.91
2018-04-23T00:49:25.804Z,1002.93
2018-04-23T00:50:25.792Z,1002.9
2018-04-23T00:51:25.779Z,1002.79
2018-04-23T00:52:25.766Z,1002.74
2018-04-23T00:53:25.754Z,1002.73
2018-04-23T00:54:25.744Z,1002.64
2018-04-23T00:55:25.730Z,1002.62
2018-04-23T00:56:25.718Z,1002.62
2018-04-23T00:57:25.709Z,1002.63
2018-04-23T00:58:25.719Z,1002.6
2018-04-23T00:59:25.686Z,1002.63
2018-04-23T01:00:25.672Z,1002.69
2018-04-23T01:01:25.657Z,1002.71
2018-04-23T01:02:25.646Z,1002.71
2018-04-23T01:03:25.636Z,1002.7
2018-04-23T01:04:25.623Z,1002.68
2018-04-23T01:05:25.612Z,1002.69
2018-04-23T01:06:25.596Z,1002.74
2018-04-23T01:07:25.587Z,1002.75
2018-04-23T01:08:25.583Z,1002.73
2018-04-23T01:09:25.561Z,1002.8
2018-04-23T01:10:25.548Z,1002.79
2018-04-23T01:11:25.534Z,1002.88
2018-04-23T01:12:25.523Z,1002.88
2018-04-23T01:13:25.516Z,1002.88
2018-04-23T01:14:25.498Z,1002.87
2018-04-23T01:15:25.485Z,1002.85
2018-04-23T01:16:25.479Z,1002.86
2018-04-23T01:17:25.462Z,1002.85
2018-04-23T01:18:25.451Z,1002.85
2018-04-23T01:19:25.439Z,1002.88
2018-04-23T01:20:25.430Z,1002.94
2018-04-23T01:21:25.414Z,1002.89
2018-04-23T01:22:25.402Z,1002.91
2018-04-23T01:23:25.391Z,1002.88
2018-04-23T01:24:25.389Z,1002.88
2018-04-23T01:25:25.368Z,1002.86
2018-04-23T01:26:25.355Z,1002.85
2018-04-23T01:27:25.345Z,1002.9
2018-04-23T01:28:25.333Z,1002.88
2018-04-23T01:29:25.331Z,1002.91
2018-04-23T01:30:25.315Z,1002.88
2018-04-23T01:31:25.295Z,1002.89
2018-04-23T01:32:25.294Z,1002.93
2018-04-23T01:33:25.270Z,1002.89
2018-04-23T01:34:25.263Z,1002.9
2018-04-23T01:35:25.259Z,1002.89
2018-04-23T01:36:25.235Z,1002.88
2018-04-23T01:37:25.235Z,1002.86
2018-04-23T01:38:25.225Z,1002.93
2018-04-23T01:39:25.223Z,1002.98
2018-04-23T01:40:25.200Z,1002.96
2018-04-23T01:41:25.175Z,1002.98
2018-04-23T01:42:25.163Z,1002.94
2018-04-23T01:43:25.151Z,1002.96
2018-04-23T01:44:25.155Z,1002.99
2018-04-23T01:45:25.125Z,1003.02
2018-04-23T01:46:25.115Z,1003.06
2018-04-23T01:47:25.100Z,1003.03
2018-04-23T01:48:25.092Z,1002.98
2018-04-23T01:49:25.074Z,1003
2018-04-23T01:50:25.062Z,1002.93
2018-04-23T01:51:25.053Z,1002.9
2018-04-23T01:52:25.042Z,1002.95
2018-04-23T01:53:25.028Z,1002.92
2018-04-23T01:54:25.021Z,1002.91
2018-04-23T01:55:25.001Z,1002.9
2018-04-23T01:56:24.992Z,1002.89
2018-04-23T01:57:24.979Z,1002.86
2018-04-23T01:58:24.965Z,1002.89
2018-04-23T01:59:24.953Z,1002.85
2018-04-23T02:00:24.943Z,1002.83
2018-04-23T02:01:24.928Z,1002.81
2018-04-23T02:02:24.916Z,1002.78
2018-04-23T02:03:24.903Z,1002.77
2018-04-23T02:04:24.891Z,1002.75
2018-04-23T02:05:24.880Z,1002.71
2018-04-23T02:06:24.868Z,1002.77
2018-04-23T02:07:24.856Z,1002.79
2018-04-23T02:08:24.845Z,1002.8
2018-04-23T02:09:24.835Z,1002.78
2018-04-23T02:10:24.821Z,1002.78
2018-04-23T02:11:24.807Z,1002.78
2018-04-23T02:12:24.796Z,1002.81
2018-04-23T02:14:24.769Z,1002.87
2018-04-23T02:15:24.765Z,1002.88
2018-04-23T02:16:24.746Z,1002.88
2018-04-23T02:17:24.733Z,1002.91
2018-04-23T02:18:24.727Z,1002.95
2018-04-23T02:19:24.708Z,1002.96
2018-04-23T02:20:24.696Z,1003.01
2018-04-23T02:21:24.686Z,1002.98
2018-04-23T02:22:24.671Z,1002.93
2018-04-23T02:23:24.670Z,1002.94
2018-04-23T02:24:24.646Z,1002.95
2018-04-23T02:25:24.636Z,1002.89
2018-04-23T02:26:24.623Z,1002.91
2018-04-23T02:27:24.609Z,1002.92
2018-04-23T02:28:24.599Z,1002.94
2018-04-23T02:29:24.590Z,1002.94
2018-04-23T02:30:24.575Z,1002.94
2018-04-23T02:31:24.566Z,1002.97
2018-04-23T02:32:24.550Z,1002.94
2018-04-23T02:33:24.540Z,1002.99
2018-04-23T02:34:24.524Z,1002.97
2018-04-23T02:35:24.515Z,1003.03
2018-04-23T02:36:24.500Z,1003.01
2018-04-23T02:37:24.490Z,1003
2018-04-23T02:38:24.475Z,1002.97
2018-04-23T02:39:24.468Z,1002.91
2018-04-23T02:40:24.451Z,1002.96
2018-04-23T02:41:24.437Z,1002.98
2018-04-23T02:42:24.628Z,1002.94
2018-04-23T02:43:24.413Z,1002.98
2018-04-23T02:44:24.400Z,1002.93
2018-04-23T02:45:24.388Z,1002.98
2018-04-23T02:46:24.374Z,1002.98
2018-04-23T02:47:24.366Z,1002.91
2018-04-23T02:48:24.351Z,1002.9
2018-04-23T02:49:24.339Z,1002.89
2018-04-23T02:50:24.324Z,1002.89
2018-04-23T02:51:24.312Z,1002.94
2018-04-23T02:52:24.301Z,1002.94
2018-04-23T02:53:24.287Z,1002.95
2018-04-23T02:54:24.275Z,1002.95
2018-04-23T02:55:24.262Z,1002.95
2018-04-23T02:56:24.256Z,1002.93
2018-04-23T02:57:24.244Z,1002.98
2018-04-23T02:58:24.224Z,1002.97
2018-04-23T02:59:24.215Z,1003
2018-04-23T03:00:24.200Z,1002.99
2018-04-23T03:01:24.188Z,1003.01
2018-04-23T03:02:24.176Z,1003.01
2018-04-23T03:03:24.163Z,1002.98
2018-04-23T03:04:24.151Z,1003.05
2018-04-23T03:05:24.139Z,1003.06
2018-04-23T03:06:24.126Z,1003.12
2018-04-23T03:07:24.113Z,1003.08
2018-04-23T03:08:24.101Z,1003.05
2018-04-23T03:09:24.088Z,1003.09
2018-04-23T03:10:24.075Z,1003.06
2018-04-23T03:11:24.069Z,1003.08
2018-04-23T03:12:24.052Z,1003.08
2018-04-23T03:13:24.038Z,1003.08
2018-04-23T03:14:24.025Z,1003.07
2018-04-23T03:15:24.014Z,1003.02
2018-04-23T03:16:24.001Z,1003.05
2018-04-23T03:17:23.991Z,1003.06
2018-04-23T03:18:23.974Z,1003.07
2018-04-23T03:19:23.960Z,1003.07
2018-04-23T03:20:23.949Z,1003.04
2018-04-23T03:21:23.936Z,1003.07
2018-04-23T03:22:23.924Z,1003.07
2018-04-23T03:23:23.913Z,1003.08
2018-04-23T03:24:23.899Z,1003.13
2018-04-23T03:25:23.887Z,1003.12
2018-04-23T03:26:23.873Z,1003.15
2018-04-23T03:27:23.862Z,1003.14
2018-04-23T03:28:23.848Z,1003.12
2018-04-23T03:29:23.836Z,1003.06
2018-04-23T03:30:23.824Z,1003.1
2018-04-23T03:31:23.812Z,1003.15
2018-04-23T03:32:23.805Z,1003.12
2018-04-23T03:33:23.788Z,1003.15
2018-04-23T03:34:23.775Z,1003.13
2018-04-23T03:35:23.762Z,1003.17
2018-04-23T03:36:23.751Z,1003.24
2018-04-23T03:37:23.743Z,1003.22
2018-04-23T03:38:23.728Z,1003.24
2018-04-23T03:39:23.712Z,1003.24
2018-04-23T03:40:23.699Z,1003.29
2018-04-23T03:41:23.686Z,1003.36
2018-04-23T03:42:23.673Z,1003.4
2018-04-23T03:43:23.717Z,1003.42
2018-04-23T03:44:23.669Z,1003.45
2018-04-23T03:45:23.636Z,1003.46
2018-04-23T03:46:23.627Z,1003.5
2018-04-23T03:47:23.611Z,1003.53
2018-04-23T03:48:23.597Z,1003.52
2018-04-23T03:49:23.586Z,1003.56
2018-04-23T03:50:23.574Z,1003.54
2018-04-23T03:51:23.563Z,1003.56
2018-04-23T03:52:23.550Z,1003.57
2018-04-23T03:53:23.534Z,1003.57
2018-04-23T03:54:23.524Z,1003.66
2018-04-23T03:55:23.511Z,1003.69
2018-04-23T03:56:23.499Z,1003.65
2018-04-23T03:57:23.489Z,1003.67
2018-04-23T03:58:23.470Z,1003.69
2018-04-23T03:59:23.458Z,1003.69
2018-04-23T04:00:23.447Z,1003.64
2018-04-23T04:01:23.434Z,1003.63
2018-04-23T04:02:23.419Z,1003.63
2018-04-23T04:03:23.408Z,1003.6
2018-04-23T04:04:23.396Z,1003.6
2018-04-23T04:05:23.381Z,1003.62
2018-04-23T04:06:23.372Z,1003.63
2018-04-23T04:07:23.361Z,1003.65
2018-04-23T04:08:23.346Z,1003.66
2018-04-23T04:09:23.410Z,1003.7
2018-04-23T04:10:23.318Z,1003.7
2018-04-23T04:11:23.306Z,1003.7
2018-04-23T04:12:23.294Z,1003.72
2018-04-23T04:13:23.282Z,1003.69
2018-04-23T04:14:23.268Z,1003.76
2018-04-23T04:15:23.261Z,1003.76
2018-04-23T04:16:23.248Z,1003.77
2018-04-23T04:17:23.230Z,1003.75
2018-04-23T04:18:23.217Z,1003.76
2018-04-23T04:19:23.208Z,1003.76
2018-04-23T04:20:23.192Z,1003.75
2018-04-23T04:21:23.178Z,1003.78
2018-04-23T04:22:23.168Z,1003.79
2018-04-23T04:23:23.153Z,1003.82
2018-04-23T04:24:23.141Z,1003.84
2018-04-23T04:25:23.134Z,1003.85
2018-04-23T04:26:23.115Z,1003.8
2018-04-23T04:27:23.107Z,1003.82
2018-04-23T04:28:23.092Z,1003.84
2018-04-23T04:29:23.079Z,1003.83
2018-04-23T04:30:23.066Z,1003.81
2018-04-23T04:31:23.056Z,1003.88
2018-04-23T04:32:23.040Z,1003.92
2018-04-23T04:33:23.029Z,1003.94
2018-04-23T04:34:23.015Z,1003.95
2018-04-23T04:35:23.007Z,1003.96
2018-04-23T04:36:22.991Z,1003.97
2018-04-23T04:37:22.987Z,1003.97
2018-04-23T04:38:22.965Z,1003.97
2018-04-23T04:39:22.960Z,1004.01
2018-04-23T04:40:22.942Z,1003.97
2018-04-23T04:41:22.937Z,1004
2018-04-23T04:42:23.117Z,1004.05
2018-04-23T04:43:22.903Z,1004.05
2018-04-23T04:44:22.893Z,1004.02
2018-04-23T04:45:22.880Z,1003.98
2018-04-23T04:46:22.865Z,1003.99
2018-04-23T04:47:22.853Z,1003.99
2018-04-23T04:48:22.840Z,1003.98
2018-04-23T04:49:22.826Z,1004.01
2018-04-23T04:50:22.815Z,1004.01
2018-04-23T04:51:22.831Z,1004
2018-04-23T04:52:22.792Z,1004.01
2018-04-23T04:53:22.777Z,1004.01
2018-04-23T04:54:22.767Z,1004.01
2018-04-23T04:55:22.753Z,1004.03
2018-04-23T04:56:22.741Z,1004.01
2018-04-23T04:57:22.730Z,1004.09
2018-04-23T04:58:22.718Z,1004.07
2018-04-23T04:59:22.700Z,1004.06
2018-04-23T05:00:22.689Z,1004.12
2018-04-23T05:01:22.675Z,1004.13
2018-04-23T05:02:22.663Z,1004.11
2018-04-23T05:03:22.650Z,1004.09
2018-04-23T05:04:22.638Z,1004.15
2018-04-23T05:05:22.625Z,1004.14
2018-04-23T05:06:22.612Z,1004.09
2018-04-23T05:07:22.601Z,1004.12
2018-04-23T05:08:22.586Z,1004.1
2018-04-23T05:09:22.573Z,1004.15
2018-04-23T05:10:22.565Z,1004.17
2018-04-23T05:11:22.547Z,1004.19
2018-04-23T05:12:22.539Z,1004.2
2018-04-23T05:13:22.534Z,1004.24
2018-04-23T05:14:22.511Z,1004.22
2018-04-23T05:15:22.497Z,1004.19
2018-04-23T05:16:22.484Z,1004.21
2018-04-23T05:17:22.475Z,1004.25
2018-04-23T05:18:22.458Z,1004.22
2018-04-23T05:19:22.447Z,1004.19
2018-04-23T05:20:22.437Z,1004.21
2018-04-23T05:21:22.424Z,1004.17
2018-04-23T05:22:22.407Z,1004.22
2018-04-23T05:23:22.397Z,1004.25
2018-04-23T05:24:22.386Z,1004.27
2018-04-23T05:25:22.373Z,1004.23
2018-04-23T05:26:22.359Z,1004.31
2018-04-23T05:27:22.344Z,1004.36
2018-04-23T05:28:22.333Z,1004.37
2018-04-23T05:29:22.319Z,1004.36
2018-04-23T05:30:22.307Z,1004.32
2018-04-23T05:31:22.295Z,1004.38
2018-04-23T05:32:22.284Z,1004.36
2018-04-23T05:33:22.269Z,1004.37
2018-04-23T05:34:22.260Z,1004.33
2018-04-23T05:35:22.246Z,1004.33
2018-04-23T05:36:22.232Z,1004.33
2018-04-23T05:37:22.218Z,1004.28
2018-04-23T05:38:22.206Z,1004.29
2018-04-23T05:39:22.193Z,1004.28
2018-04-23T05:40:22.181Z,1004.38
2018-04-23T05:41:22.169Z,1004.4
2018-04-23T05:42:22.158Z,1004.44
2018-04-23T05:43:22.142Z,1004.44
2018-04-23T05:44:22.132Z,1004.41
2018-04-23T05:45:22.118Z,1004.42
2018-04-23T05:46:22.109Z,1004.42
2018-04-23T05:47:22.094Z,1004.45
2018-04-23T05:48:22.081Z,1004.45
2018-04-23T05:49:22.069Z,1004.41
2018-04-23T05:50:22.056Z,1004.46
2018-04-23T05:51:22.045Z,1004.48
2018-04-23T05:52:22.031Z,1004.46
2018-04-23T05:53:22.018Z,1004.47
2018-04-23T05:54:22.008Z,1004.47
2018-04-23T05:55:21.993Z,1004.49
2018-04-23T05:56:21.983Z,1004.46
2018-04-23T05:57:21.970Z,1004.54
2018-04-23T05:58:21.960Z,1004.52
2018-04-23T05:59:21.944Z,1004.56
2018-04-23T06:00:21.934Z,1004.58
2018-04-23T06:01:21.920Z,1004.65
2018-04-23T06:02:21.907Z,1004.63
2018-04-23T06:03:21.896Z,1004.67
2018-04-23T06:04:21.883Z,1004.59
2018-04-23T06:05:21.873Z,1004.63
2018-04-23T06:06:21.858Z,1004.65
2018-04-23T06:07:21.850Z,1004.63
2018-04-23T06:08:21.836Z,1004.68
2018-04-23T06:09:21.824Z,1004.71
2018-04-23T06:10:21.811Z,1004.67
2018-04-23T06:11:21.798Z,1004.73
2018-04-23T06:12:21.788Z,1004.7
2018-04-23T06:13:21.776Z,1004.76
2018-04-23T06:14:21.818Z,1004.71
2018-04-23T06:15:21.752Z,1004.73
2018-04-23T06:16:21.748Z,1004.67
2018-04-23T06:17:21.730Z,1004.71
2018-04-23T06:18:21.716Z,1004.71
2018-04-23T06:19:21.701Z,1004.7
2018-04-23T06:20:21.690Z,1004.73
2018-04-23T06:21:21.678Z,1004.72
2018-04-23T06:22:21.667Z,1004.79
2018-04-23T06:23:21.655Z,1004.82
2018-04-23T06:24:21.645Z,1004.81
2018-04-23T06:25:21.630Z,1004.84
2018-04-23T06:26:21.619Z,1004.84
2018-04-23T06:27:21.606Z,1004.83
2018-04-23T06:28:21.595Z,1004.8
2018-04-23T06:29:21.587Z,1004.9
2018-04-23T06:30:21.572Z,1004.92
2018-04-23T06:31:21.559Z,1004.95
2018-04-23T06:32:21.558Z,1004.98
2018-04-23T06:33:21.539Z,1004.96
2018-04-23T06:34:21.526Z,1004.97
2018-04-23T06:35:21.512Z,1004.98
2018-04-23T06:36:21.501Z,1004.99
2018-04-23T06:37:21.488Z,1005.06
2018-04-23T06:38:21.476Z,1005.07
2018-04-23T06:39:21.465Z,1005.06
2018-04-23T06:40:21.470Z,1005.1
2018-04-23T06:41:21.442Z,1005.11
2018-04-23T06:42:21.428Z,1005.11
2018-04-23T06:43:21.421Z,1005.11
2018-04-23T06:44:21.406Z,1005.05
2018-04-23T06:45:21.396Z,1005.1
2018-04-23T06:46:21.424Z,1005.06
2018-04-23T06:47:21.372Z,1005.09
2018-04-23T06:48:21.365Z,1005.12
2018-04-23T06:49:21.347Z,1005.08
2018-04-23T06:50:21.336Z,1005.13
2018-04-23T06:51:21.324Z,1005.17
2018-04-23T06:52:21.313Z,1005.14
2018-04-23T06:53:21.301Z,1005.14
2018-04-23T06:54:21.289Z,1005.16
2018-04-23T06:55:21.278Z,1005.12
2018-04-23T06:56:21.266Z,1005.16
2018-04-23T06:57:21.254Z,1005.19
2018-04-23T06:58:21.246Z,1005.18
2018-04-23T06:59:21.232Z,1005.19
2018-04-23T07:00:21.222Z,1005.21
2018-04-23T07:01:21.411Z,1005.2
2018-04-23T07:02:21.195Z,1005.22
2018-04-23T07:03:21.186Z,1005.24
2018-04-23T07:04:21.183Z,1005.21
2018-04-23T07:05:21.161Z,1005.22
2018-04-23T07:06:21.150Z,1005.27
2018-04-23T07:07:21.140Z,1005.3
2018-04-23T07:08:21.129Z,1005.27
2018-04-23T07:09:21.115Z,1005.22
2018-04-23T07:10:21.104Z,1005.28
2018-04-23T07:11:21.094Z,1005.27
2018-04-23T07:12:21.079Z,1005.19
2018-04-23T07:13:21.067Z,1005.25
2018-04-23T07:14:21.056Z,1005.21
2018-04-23T07:15:21.044Z,1005.21
2018-04-23T07:16:21.032Z,1005.24
2018-04-23T07:17:21.020Z,1005.21
2018-04-23T07:18:21.012Z,1005.22
2018-04-23T07:19:20.996Z,1005.29
2018-04-23T07:20:20.984Z,1005.29
2018-04-23T07:21:20.974Z,1005.31
2018-04-23T07:22:20.961Z,1005.27
2018-04-23T07:23:20.948Z,1005.26
2018-04-23T07:24:20.940Z,1005.29
2018-04-23T07:25:20.926Z,1005.27
2018-04-23T07:26:20.913Z,1005.28
2018-04-23T07:27:20.902Z,1005.29
2018-04-23T07:28:20.890Z,1005.33
2018-04-23T07:29:20.902Z,1005.28
2018-04-23T07:30:20.867Z,1005.3
2018-04-23T07:31:20.857Z,1005.31
2018-04-23T07:32:20.845Z,1005.27
2018-04-23T07:33:20.845Z,1005.31
2018-04-23T07:34:20.822Z,1005.34
2018-04-23T07:35:20.810Z,1005.38
2018-04-23T07:36:20.799Z,1005.38
2018-04-23T07:37:20.785Z,1005.36
2018-04-23T07:38:20.775Z,1005.43
2018-04-23T07:39:20.764Z,1005.45
2018-04-23T07:40:20.752Z,1005.46
2018-04-23T07:41:20.739Z,1005.49
2018-04-23T07:42:20.729Z,1005.48
2018-04-23T07:43:20.721Z,1005.5
2018-04-23T07:44:20.705Z,1005.49
2018-04-23T07:45:20.694Z,1005.52
2018-04-23T07:46:20.683Z,1005.62
2018-04-23T07:47:20.672Z,1005.58
2018-04-23T07:48:20.660Z,1005.64
2018-04-23T07:49:20.649Z,1005.65
2018-04-23T07:50:20.637Z,1005.61
2018-04-23T07:51:20.625Z,1005.69
2018-04-23T07:52:20.615Z,1005.65
2018-04-23T07:53:20.602Z,1005.67
2018-04-23T07:54:20.592Z,1005.69
2018-04-23T07:55:20.580Z,1005.69
2018-04-23T07:56:20.567Z,1005.75
2018-04-23T07:57:20.558Z,1005.73
2018-04-23T07:58:20.546Z,1005.71
2018-04-23T07:59:20.538Z,1005.74
2018-04-23T08:00:20.521Z,1005.75
2018-04-23T08:01:20.512Z,1005.73
2018-04-23T08:02:20.501Z,1005.74
2018-04-23T08:03:20.489Z,1005.73
2018-04-23T08:04:20.481Z,1005.72
2018-04-23T08:05:20.467Z,1005.74
2018-04-23T08:06:20.455Z,1005.78
2018-04-23T08:07:20.447Z,1005.77
2018-04-23T08:08:20.433Z,1005.77
2018-04-23T08:09:20.422Z,1005.96
2018-04-23T08:10:20.413Z,1006.07
2018-04-23T08:11:20.400Z,1006.05
2018-04-23T08:12:20.391Z,1006.01
2018-04-23T08:13:20.380Z,1006.2
2018-04-23T08:14:20.371Z,1006.03
2018-04-23T08:15:20.357Z,1005.93
2018-04-23T08:16:20.350Z,1005.92
2018-04-23T08:17:20.342Z,1005.91
2018-04-23T08:18:20.328Z,1005.96
2018-04-23T08:19:20.320Z,1005.93
2018-04-23T08:20:20.313Z,1006.07
2018-04-23T08:21:20.301Z,1006.07
2018-04-23T08:22:20.295Z,1006
2018-04-23T08:23:20.285Z,1006
2018-04-23T08:24:20.278Z,1006.14
2018-04-23T08:25:20.267Z,1006.05
2018-04-23T08:26:20.259Z,1006.09
2018-04-23T08:27:20.252Z,1006.11
2018-04-23T08:28:20.241Z,1006.04
2018-04-23T08:29:20.232Z,1006
2018-04-23T08:30:20.225Z,1005.99
2018-04-23T08:31:20.218Z,1006.06
2018-04-23T08:32:20.210Z,1006.01
2018-04-23T08:33:20.200Z,1006.13
2018-04-23T08:34:20.195Z,1006.19
2018-04-23T08:35:20.188Z,1006.14
2018-04-23T08:36:20.179Z,1006.1
2018-04-23T08:37:20.170Z,1006.07
2018-04-23T08:38:20.163Z,1006.06
2018-04-23T08:39:20.155Z,1006.12
2018-04-23T08:40:20.148Z,1006.22
2018-04-23T08:41:20.140Z,1006.22
2018-04-23T08:42:20.134Z,1006.12
2018-04-23T08:43:20.124Z,1006.09
2018-04-23T08:44:20.117Z,1006.14
2018-04-23T08:45:20.109Z,1006.17
2018-04-23T08:46:20.104Z,1006.19
2018-04-23T08:47:20.662Z,1006.18
2018-04-23T08:48:20.086Z,1006.14
2018-04-23T08:49:20.076Z,1006.11
2018-04-23T08:50:20.073Z,1006.15
2018-04-23T08:51:20.059Z,1006.16
2018-04-23T08:52:20.051Z,1006.19
2018-04-23T08:53:20.042Z,1006.2
2018-04-23T08:54:20.032Z,1006.19
2018-04-23T08:55:20.023Z,1006.26
2018-04-23T08:56:20.014Z,1006.26
2018-04-23T08:57:20.006Z,1006.19
2018-04-23T08:58:19.995Z,1006.28
2018-04-23T08:59:19.988Z,1006.28
2018-04-23T09:00:20.038Z,1006.33
2018-04-23T09:01:19.969Z,1006.29
2018-04-23T09:02:19.964Z,1006.25
2018-04-23T09:03:19.950Z,1006.3
2018-04-23T09:04:19.943Z,1006.29
2018-04-23T09:05:19.937Z,1006.31
2018-04-23T09:06:19.921Z,1006.35
2018-04-23T09:07:19.912Z,1006.39
2018-04-23T09:08:19.904Z,1006.36
2018-04-23T09:09:19.900Z,1006.44
2018-04-23T09:10:19.886Z,1006.34
2018-04-23T09:11:19.880Z,1006.33
2018-04-23T09:12:19.869Z,1006.48
2018-04-23T09:13:19.857Z,1006.43
2018-04-23T09:14:19.848Z,1006.38
2018-04-23T09:15:19.840Z,1006.38
2018-04-23T09:16:19.831Z,1006.43
2018-04-23T09:17:19.823Z,1006.42
2018-04-23T09:18:19.815Z,1006.44
2018-04-23T09:19:19.808Z,1006.44
2018-04-23T09:20:19.795Z,1006.47
2018-04-23T09:21:19.789Z,1006.44
2018-04-23T09:22:19.781Z,1006.48
2018-04-23T09:23:19.771Z,1006.49
2018-04-23T09:24:19.766Z,1006.4
2018-04-23T09:25:19.755Z,1006.45
2018-04-23T09:26:19.747Z,1006.38
2018-04-23T09:27:19.743Z,1006.43
2018-04-23T09:28:19.729Z,1006.47
2018-04-23T09:29:19.724Z,1006.43
2018-04-23T09:30:19.715Z,1006.41
2018-04-23T09:31:19.703Z,1006.43
2018-04-23T09:32:19.700Z,1006.48
2018-04-23T09:33:19.692Z,1006.45
2018-04-23T09:34:19.681Z,1006.43
2018-04-23T09:35:19.672Z,1006.48
2018-04-23T09:36:19.675Z,1006.46
2018-04-23T09:37:19.659Z,1006.46
2018-04-23T09:38:19.646Z,1006.48
2018-04-23T09:39:19.641Z,1006.51
2018-04-23T09:40:19.632Z,1006.48
2018-04-23T09:41:19.625Z,1006.44
2018-04-23T09:42:19.617Z,1006.48
2018-04-23T09:43:19.612Z,1006.53
2018-04-23T09:44:19.601Z,1006.51
2018-04-23T09:45:19.590Z,1006.56
2018-04-23T09:46:19.581Z,1006.51
2018-04-23T09:47:19.574Z,1006.55
2018-04-23T09:48:19.565Z,1006.57
2018-04-23T09:49:19.556Z,1006.56
2018-04-23T09:50:19.555Z,1006.6
2018-04-23T09:51:19.540Z,1006.58
2018-04-23T09:52:19.534Z,1006.63
2018-04-23T09:53:19.523Z,1006.63
2018-04-23T09:54:19.516Z,1006.66
2018-04-23T09:55:19.507Z,1006.64
2018-04-23T09:56:19.497Z,1006.66
2018-04-23T09:57:19.488Z,1006.66
2018-04-23T09:58:19.480Z,1006.67
2018-04-23T09:59:19.472Z,1006.68
2018-04-23T10:00:19.463Z,1006.66
2018-04-23T10:01:19.453Z,1006.67
2018-04-23T10:02:19.445Z,1006.7
2018-04-23T10:03:19.435Z,1006.69
2018-04-23T10:04:19.428Z,1006.7
2018-04-23T10:05:19.422Z,1006.67
2018-04-23T10:06:19.410Z,1006.61
2018-04-23T10:07:19.401Z,1006.77
2018-04-23T10:08:19.399Z,1006.66
2018-04-23T10:09:19.440Z,1006.74
2018-04-23T10:10:19.374Z,1006.71
2018-04-23T10:11:19.369Z,1006.73
2018-04-23T10:12:19.357Z,1006.77
2018-04-23T10:13:19.346Z,1006.68
2018-04-23T10:14:19.336Z,1006.79
2018-04-23T10:15:19.327Z,1006.79
2018-04-23T10:16:19.319Z,1006.85
2018-04-23T10:17:19.312Z,1006.76
2018-04-23T10:18:19.303Z,1006.79
2018-04-23T10:19:19.298Z,1006.8
2018-04-23T10:20:19.287Z,1006.85
2018-04-23T10:21:19.278Z,1006.83
2018-04-23T10:22:19.269Z,1006.78
2018-04-23T10:23:19.262Z,1006.84
2018-04-23T10:24:19.253Z,1006.84
2018-04-23T10:25:19.246Z,1006.81
2018-04-23T10:26:19.238Z,1006.86
2018-04-23T10:27:19.229Z,1006.8
2018-04-23T10:28:19.221Z,1006.89
2018-04-23T10:29:19.217Z,1006.89
2018-04-23T10:30:19.209Z,1006.87
2018-04-23T10:31:19.205Z,1006.98
2018-04-23T10:32:19.196Z,1006.79
2018-04-23T10:33:19.188Z,1006.79
2018-04-23T10:34:19.183Z,1006.9
2018-04-23T10:35:19.177Z,1007.03
2018-04-23T10:36:19.169Z,1007
2018-04-23T10:37:19.161Z,1006.92
2018-04-23T10:38:19.158Z,1006.96
2018-04-23T10:39:19.151Z,1006.94
2018-04-23T10:40:19.147Z,1006.93
2018-04-23T10:41:19.141Z,1006.93
2018-04-23T10:42:19.134Z,1006.98
2018-04-23T10:43:19.330Z,1007
2018-04-23T10:44:19.121Z,1006.97
2018-04-23T10:45:19.114Z,1006.98
2018-04-23T10:46:19.109Z,1006.91
2018-04-23T10:47:19.104Z,1006.93
2018-04-23T10:48:19.101Z,1006.96
2018-04-23T10:49:19.091Z,1006.94
2018-04-23T10:50:19.084Z,1007.01
2018-04-23T10:51:19.080Z,1006.97
2018-04-23T10:52:19.073Z,1007
2018-04-23T10:53:19.066Z,1006.99
2018-04-23T10:54:19.063Z,1006.94
2018-04-23T10:55:19.061Z,1007.03
2018-04-23T10:56:19.050Z,1006.95
2018-04-23T10:57:19.043Z,1006.99
2018-04-23T10:58:19.035Z,1007.1
2018-04-23T10:59:19.028Z,1007
2018-04-23T11:00:19.024Z,1006.92
2018-04-23T11:01:19.018Z,1007
2018-04-23T11:02:19.013Z,1007.08
2018-04-23T11:03:19.005Z,1007.02
2018-04-23T11:04:18.998Z,1007
2018-04-23T11:05:18.991Z,1007.02
2018-04-23T11:06:18.986Z,1007.12
2018-04-23T11:07:18.981Z,1007.1
2018-04-23T11:08:18.977Z,1007.19
2018-04-23T11:09:18.970Z,1007.23
2018-04-23T11:10:18.966Z,1007.26
2018-04-23T11:11:18.963Z,1007.36
2018-04-23T11:12:18.958Z,1007.34
2018-04-23T11:13:18.957Z,1007.32
2018-04-23T11:14:18.953Z,1007.35
2018-04-23T11:15:18.947Z,1007.32
2018-04-23T11:16:18.946Z,1007.24
2018-04-23T11:17:18.942Z,1007.12
2018-04-23T11:18:18.941Z,1007.32
2018-04-23T11:19:18.940Z,1007.11
2018-04-23T11:20:18.939Z,1007.32
2018-04-23T11:21:18.936Z,1007.25
2018-04-23T11:22:18.945Z,1007.26
2018-04-23T11:23:18.940Z,1007.24
2018-04-23T11:24:18.932Z,1007.29
2018-04-23T11:25:18.931Z,1007.37
2018-04-23T11:26:18.930Z,1007.13
2018-04-23T11:27:18.932Z,1007.13
2018-04-23T11:28:18.931Z,1007.24
2018-04-23T11:29:18.931Z,1007.1
2018-04-23T11:30:18.929Z,1007.12
2018-04-23T11:31:18.929Z,1007.14
2018-04-23T11:32:18.928Z,1007.31
2018-04-23T11:33:18.928Z,1007.09
2018-04-23T11:34:18.926Z,1007.21
2018-04-23T11:35:18.926Z,1007.29
2018-04-23T11:36:18.926Z,1007.29
2018-04-23T11:37:18.924Z,1007.33
2018-04-23T11:38:18.921Z,1007.32
2018-04-23T11:39:18.921Z,1007.39
2018-04-23T11:40:18.922Z,1007.4
2018-04-23T11:41:18.924Z,1007.13
2018-04-23T11:42:18.919Z,1007.43
2018-04-23T11:43:18.919Z,1007.27
2018-04-23T11:44:18.921Z,1007.48
2018-04-23T11:45:18.920Z,1007.52
2018-04-23T11:46:18.920Z,1007.43
2018-04-23T11:47:18.921Z,1007.32
2018-04-23T11:48:18.921Z,1007.35
2018-04-23T11:49:18.921Z,1007.29
2018-04-23T11:50:18.923Z,1007.36
2018-04-23T11:51:18.926Z,1007.4
2018-04-23T11:52:18.934Z,1007.24
2018-04-23T11:53:18.930Z,1007.27
2018-04-23T11:54:18.931Z,1007.26
2018-04-23T11:55:18.938Z,1007.26
2018-04-23T11:56:18.938Z,1007.37
2018-04-23T11:57:18.944Z,1007.31
2018-04-23T11:58:18.944Z,1007.44
2018-04-23T11:59:18.964Z,1007.47
2018-04-23T12:00:18.949Z,1007.31
2018-04-23T12:01:18.953Z,1007.31
2018-04-23T12:02:18.957Z,1007.39
2018-04-23T12:03:18.962Z,1007.34
2018-04-23T12:04:18.969Z,1007.33
2018-04-23T12:05:18.973Z,1007.33
2018-04-23T12:06:18.973Z,1007.36
2018-04-23T12:07:18.976Z,1007.38
2018-04-23T12:08:18.981Z,1007.3
2018-04-23T12:09:18.983Z,1007.44